Time;durP1;ratioP1;P1;durP2;ratioP2;P2;SDS_P1;SDS_P2;PMS_P1;PMS_P2;Temp;Humidity;BMP_temperature;BMP_pressure;BME280_temperature;BME280_humidity;BME280_pressure;Samples;Min_cycle;Max_cycle;Signal;HPM_P1;HPM_P2
2022/02/09 00:00:10;;;;;;;;;;;205.30;2252.80;;;;;;5095788;28;19908;-78
2022/02/09 00:03:07;;;;;;;;;;;205.40;2252.80;;;;;;5077770;28;19991;-79
2022/02/09 00:08:34;;;;;;;;;;;205.50;2252.80;;;;;;5033282;28;19988;-76
2022/02/09 00:11:03;;;;;;;;;;;205.50;2252.80;;;;;;5033222;28;20335;-78
2022/02/09 00:19:05;;;;;;;;;;;205.50;2252.80;;;;;;5029613;28;19913;-78
2022/02/09 01:38:57;;;;;;;;;;;205.10;2252.80;;;;;;5050580;28;20003;-77
2022/02/09 01:57:14;;;;;;;;;;;205.00;2252.80;;;;;;5049717;28;20019;-78
2022/02/09 01:59:42;;;;;;;;;;;204.90;2252.80;;;;;;5081962;28;19952;-79
2022/02/09 02:02:08;;;;;;;;;;;204.80;2252.80;;;;;;5092033;28;19908;-79
2022/02/09 02:04:33;;;;;;;;;;;204.80;2252.80;;;;;;5075336;28;20412;-77
2022/02/09 02:06:59;;;;;;;;;;;204.80;2252.80;;;;;;5093050;28;19916;-76
2022/02/09 02:09:26;;;;;;;;;;;180.10;2252.80;;;;;;5094786;28;19919;-76
2022/02/09 02:12:01;;;;;;;;;;;180.10;2252.80;;;;;;5094701;28;19908;-78
2022/02/09 02:17:19;;;;;;;;;;;180.00;2252.80;;;;;;5110764;28;19919;-78
2022/02/09 02:19:48;;;;;;;;;;;179.90;2252.80;;;;;;5095294;28;19908;-78
2022/02/09 02:57:56;;;;;;;;;;;180.10;2252.80;;;;;;4952264;29;19933;-79
2022/02/09 03:13:36;;;;;;;;;;;180.10;2252.80;;;;;;4931239;29;20332;-78
2022/02/09 03:16:08;;;;;;;;;;;180.10;2252.80;;;;;;4948842;28;19933;-78
2022/02/09 03:23:53;;;;;;;;;;;180.00;2252.80;;;;;;4972085;28;19910;-76
2022/02/09 03:42:36;;;;;;;;;;;180.10;2252.80;;;;;;5051618;28;20380;-78
2022/02/09 03:45:41;;;;;;;;;;;204.80;2252.80;;;;;;5052859;28;19998;-78
2022/02/09 03:48:25;;;;;;;;;;;180.10;2252.80;;;;;;5051783;28;20088;-79
2022/02/09 03:54:00;;;;;;;;;;;180.10;2252.80;;;;;;5028427;28;19916;-79
2022/02/09 03:56:42;;;;;;;;;;;180.00;2252.80;;;;;;5032962;28;19963;-78
2022/02/09 03:59:08;;;;;;;;;;;180.10;2252.80;;;;;;5028003;28;20040;-78
2022/02/09 04:01:39;;;;;;;;;;;180.10;2252.80;;;;;;5033303;28;19963;-77
2022/02/09 04:04:05;;;;;;;;;;;180.10;2252.80;;;;;;5033039;28;19916;-77
2022/02/09 04:06:34;;;;;;;;;;;180.10;2252.80;;;;;;5038834;28;19913;-76
2022/02/09 04:09:02;;;;;;;;;;;180.10;2252.80;;;;;;5072855;28;20418;-79
2022/02/09 04:14:20;;;;;;;;;;;180.10;2252.80;;;;;;5070785;28;19914;-79
2022/02/09 04:54:21;;;;;;;;;;;204.80;2252.80;;;;;;4975085;28;19911;-80
2022/02/09 04:56:55;;;;;;;;;;;204.80;2252.80;;;;;;4973840;28;19911;-79
2022/02/09 04:59:43;;;;;;;;;;;204.80;2252.80;;;;;;4993180;28;20015;-79
2022/02/09 05:26:20;;;;;;;;;;;180.10;2252.80;;;;;;5092329;28;19953;-79
2022/02/09 05:28:46;;;;;;;;;;;180.10;2252.80;;;;;;5075591;28;19916;-78
2022/02/09 05:31:11;;;;;;;;;;;180.00;2252.80;;;;;;5093612;28;19961;-78
2022/02/09 05:33:37;;;;;;;;;;;180.10;2252.80;;;;;;5109292;28;19908;-78
2022/02/09 05:36:03;;;;;;;;;;;180.00;2252.80;;;;;;5075857;28;19908;-78
2022/02/09 05:38:30;;;;;;;;;;;180.00;2252.80;;;;;;5075152;28;19912;-77
2022/02/09 05:40:56;;;;;;;;;;;180.00;2252.80;;;;;;5109544;28;19916;-78
2022/02/09 05:43:24;;;;;;;;;;;180.00;2252.80;;;;;;5075131;28;19909;-78
2022/02/09 05:51:35;;;;;;;;;;;180.00;2252.80;;;;;;5090525;28;19918;-78
2022/02/09 05:56:47;;;;;;;;;;;180.10;2252.80;;;;;;5091362;28;19938;-78
2022/02/09 05:59:27;;;;;;;;;;;180.10;2252.80;;;;;;5106163;28;19908;-76
2022/02/09 06:01:53;;;;;;;;;;;180.00;2252.80;;;;;;5090414;28;20355;-78
2022/02/09 06:04:18;;;;;;;;;;;180.00;2252.80;;;;;;5074499;28;19908;-78
2022/02/09 06:06:44;;;;;;;;;;;180.10;2252.80;;;;;;5092559;28;19972;-77
2022/02/09 06:09:09;;;;;;;;;;;180.00;2252.80;;;;;;5092880;28;19963;-78
2022/02/09 06:11:45;;;;;;;;;;;180.10;2252.80;;;;;;5108751;28;19908;-78
2022/02/09 06:21:56;;;;;;;;;;;180.00;2252.80;;;;;;5090737;28;19994;-78
2022/02/09 06:24:22;;;;;;;;;;;180.10;2252.80;;;;;;5074665;28;19916;-79
2022/02/09 06:26:47;;;;;;;;;;;180.10;2252.80;;;;;;5075006;28;19959;-79
2022/02/09 06:29:13;;;;;;;;;;;180.10;2252.80;;;;;;5108771;28;19967;-79
2022/02/09 06:31:39;;;;;;;;;;;180.10;2252.80;;;;;;5074872;28;19990;-77
2022/02/09 06:34:05;;;;;;;;;;;180.10;2252.80;;;;;;5074086;28;20344;-78
2022/02/09 06:36:36;;;;;;;;;;;180.10;2252.80;;;;;;5092551;28;20253;-77
2022/02/09 06:39:05;;;;;;;;;;;180.00;2252.80;;;;;;5074676;28;19913;-79
2022/02/09 06:41:31;;;;;;;;;;;180.10;2252.80;;;;;;5074336;28;19908;-79
2022/02/09 06:43:57;;;;;;;;;;;180.10;2252.80;;;;;;5092097;28;19908;-77
2022/02/09 06:46:23;;;;;;;;;;;180.10;2252.80;;;;;;5092339;28;19918;-79
2022/02/09 06:48:49;;;;;;;;;;;204.80;2252.80;;;;;;5074691;28;20855;-79
2022/02/09 06:51:19;;;;;;;;;;;204.80;2252.80;;;;;;5074470;28;19915;-77
2022/02/09 06:54:03;;;;;;;;;;;204.80;2252.80;;;;;;5108819;28;20363;-78
2022/02/09 06:59:28;;;;;;;;;;;180.10;2252.80;;;;;;5095820;28;19969;-78
2022/02/09 07:01:53;;;;;;;;;;;180.10;2252.80;;;;;;5078286;28;19916;-76
2022/02/09 07:04:19;;;;;;;;;;;180.10;2252.80;;;;;;5096213;28;19995;-76
2022/02/09 07:06:45;;;;;;;;;;;180.10;2252.80;;;;;;5077782;28;20360;-78
2022/02/09 07:09:10;;;;;;;;;;;204.80;2252.80;;;;;;5078036;28;19927;-77
2022/02/09 07:11:36;;;;;;;;;;;204.80;2252.80;;;;;;5096515;28;19981;-77
2022/02/09 07:14:02;;;;;;;;;;;204.80;2252.80;;;;;;5096769;28;19914;-79
2022/02/09 07:16:29;;;;;;;;;;;204.80;2252.80;;;;;;5095657;28;19934;-79
2022/02/09 07:18:55;;;;;;;;;;;205.10;2252.80;;;;;;5096464;28;19916;-75
2022/02/09 07:21:27;;;;;;;;;;;204.80;2252.80;;;;;;5096514;28;19934;-75
2022/02/09 07:23:56;;;;;;;;;;;204.80;2252.80;;;;;;5078499;28;19999;-81
2022/02/09 07:26:40;;;;;;;;;;;204.90;2252.80;;;;;;5078832;28;20312;-81
2022/02/09 07:29:06;;;;;;;;;;;204.90;2252.80;;;;;;5077047;28;19975;-79
2022/02/09 07:31:31;;;;;;;;;;;205.00;2252.80;;;;;;5095997;28;19955;-82
2022/02/09 07:33:59;;;;;;;;;;;205.00;2252.80;;;;;;5078031;28;19915;-79
2022/02/09 07:36:27;;;;;;;;;;;205.00;2252.80;;;;;;5078027;28;19909;-74
2022/02/09 07:38:52;;;;;;;;;;;205.00;2252.80;;;;;;5077778;28;19916;-79
2022/02/09 07:41:18;;;;;;;;;;;205.10;2252.80;;;;;;5077161;28;20042;-78
2022/02/09 07:43:58;;;;;;;;;;;205.10;2252.80;;;;;;5078236;28;19919;-80
2022/02/09 07:54:10;;;;;;;;;;;205.40;2252.80;;;;;;5095469;28;20318;-76
2022/02/09 07:56:36;;;;;;;;;;;205.40;2252.80;;;;;;5095389;28;19915;-83
2022/02/09 07:59:03;;;;;;;;;;;205.50;2252.80;;;;;;5096321;28;19912;-79
2022/02/09 08:01:28;;;;;;;;;;;205.50;2252.80;;;;;;5095342;28;19919;-81
2022/02/09 08:03:54;;;;;;;;;;;205.50;2252.80;;;;;;5076086;28;20364;-80
2022/02/09 08:06:24;;;;;;;;;;;205.60;2252.80;;;;;;5095428;28;19908;-83
2022/02/09 08:08:50;;;;;;;;;;;205.60;2252.80;;;;;;5076855;28;19919;-79
2022/02/09 08:11:25;;;;;;;;;;;205.70;2252.80;;;;;;5077366;28;19965;-82
2022/02/09 08:27:39;;;;;;;;;;;230.50;2252.80;;;;;;5095330;28;19915;-75
2022/02/09 08:32:50;;;;;;;;;;;230.60;2252.80;;;;;;5095573;28;20509;-84
2022/02/09 08:35:16;;;;;;;;;;;230.70;2252.80;;;;;;5076939;28;19961;-75
2022/02/09 08:37:41;;;;;;;;;;;230.80;2252.80;;;;;;5077451;28;19909;-78
2022/02/09 08:40:10;;;;;;;;;;;230.70;2252.80;;;;;;5095161;28;20013;-84
2022/02/09 08:42:38;;;;;;;;;;;230.80;2252.80;;;;;;5094958;28;19942;-78
2022/02/09 08:45:07;;;;;;;;;;;230.90;2252.80;;;;;;5110743;28;20339;-80
2022/02/09 08:47:33;;;;;;;;;;;230.90;2252.80;;;;;;5077174;28;19908;-78
2022/02/09 08:49:58;;;;;;;;;;;230.90;2252.80;;;;;;5110740;28;19924;-80
2022/02/09 08:52:24;;;;;;;;;;;230.90;2252.80;;;;;;5076804;28;19951;-79
2022/02/09 08:54:52;;;;;;;;;;;231.10;2252.80;;;;;;5094634;28;19908;-76
2022/02/09 08:57:20;;;;;;;;;;;231.10;2252.80;;;;;;5094263;28;19920;-81
2022/02/09 08:59:46;;;;;;;;;;;231.20;2252.80;;;;;;5076553;28;19908;-79
2022/02/09 09:02:14;;;;;;;;;;;231.30;2252.80;;;;;;5075937;28;19912;-80
2022/02/09 09:04:49;;;;;;;;;;;256.00;2252.80;;;;;;5109810;28;19959;-85
2022/02/09 09:07:21;;;;;;;;;;;256.10;2252.80;;;;;;5068477;28;19926;-80
2022/02/09 09:40:49;;;;;;;;;;;256.50;2252.80;;;;;;5072855;28;20410;-79
2022/02/09 10:04:21;;;;;;;;;;;281.60;2278.40;;;;;;5031817;28;20324;-75
2022/02/09 10:32:49;;;;;;;;;;;282.20;2278.40;;;;;;4913307;29;19967;-78
2022/02/09 10:35:38;;;;;;;;;;;282.30;2278.40;;;;;;4940115;29;19918;-79
2022/02/09 10:38:23;;;;;;;;;;;282.20;2278.40;;;;;;4947054;29;20031;-78
2022/02/09 10:40:52;;;;;;;;;;;282.10;2278.40;;;;;;4933843;29;20303;-79
2022/02/09 10:43:28;;;;;;;;;;;282.10;2278.40;;;;;;4952694;29;19910;-83
2022/02/09 10:46:07;;;;;;;;;;;282.20;2278.40;;;;;;4952858;29;19918;-75
2022/02/09 10:48:37;;;;;;;;;;;282.10;2278.40;;;;;;4952999;29;19910;-76
2022/02/09 10:54:14;;;;;;;;;;;282.30;2278.40;;;;;;4914789;29;19938;-78
2022/02/09 10:56:47;;;;;;;;;;;282.40;2278.40;;;;;;4914468;29;19911;-81
2022/02/09 10:59:14;;;;;;;;;;;282.40;2278.40;;;;;;4922176;29;19953;-76
2022/02/09 11:01:40;;;;;;;;;;;282.50;2278.40;;;;;;4932929;29;20442;-81
2022/02/09 11:04:07;;;;;;;;;;;307.30;2304.00;;;;;;4970134;28;20052;-78
2022/02/09 11:06:34;;;;;;;;;;;307.50;2304.00;;;;;;5028855;28;19910;-79
2022/02/09 11:09:00;;;;;;;;;;;307.60;2304.00;;;;;;5013845;28;19952;-80
2022/02/09 11:11:27;;;;;;;;;;;308.10;2304.00;;;;;;5047213;28;19935;-79
2022/02/09 11:13:53;;;;;;;;;;;333.20;2329.60;;;;;;5047368;28;19916;-76
2022/02/09 11:16:21;;;;;;;;;;;333.50;2329.60;;;;;;5013761;28;19909;-76
2022/02/09 11:18:47;;;;;;;;;;;333.70;2304.00;;;;;;5013629;28;19909;-76
2022/02/09 11:21:14;;;;;;;;;;;358.50;2227.20;;;;;;5014030;28;19909;-79
2022/02/09 11:23:46;;;;;;;;;;;358.70;2252.80;;;;;;5030387;28;19951;-85
2022/02/09 11:26:29;;;;;;;;;;;359.00;2201.60;;;;;;5014127;28;19920;-84
2022/02/09 11:29:25;;;;;;;;;;;359.10;2176.00;;;;;;5042618;28;19919;-77
2022/02/09 11:32:24;;;;;;;;;;;359.10;2099.20;;;;;;5070070;28;19908;-76
2022/02/09 11:34:50;;;;;;;;;;;359.00;2150.40;;;;;;5111229;28;20386;-77
2022/02/09 11:37:24;;;;;;;;;;;384.00;2099.20;;;;;;5085080;28;19951;-78
2022/02/09 11:39:54;;;;;;;;;;;384.00;2099.20;;;;;;5085046;28;19912;-79
2022/02/09 11:42:43;;;;;;;;;;;384.30;1996.80;;;;;;5092294;28;19961;-77
2022/02/09 11:51:06;;;;;;;;;;;384.40;1971.20;;;;;;5033635;28;19924;-80
2022/02/09 11:59:51;;;;;;;;;;;384.90;1971.20;;;;;;5034184;28;19936;-79
2022/02/09 12:11:06;;;;;;;;;;;409.90;1792.00;;;;;;5033251;28;19979;-77
2022/02/09 12:16:44;;;;;;;;;;;409.90;1894.40;;;;;;5005961;28;20302;-76
2022/02/09 12:19:14;;;;;;;;;;;410.00;1920.00;;;;;;5001311;28;19971;-77
2022/02/09 12:21:50;;;;;;;;;;;410.00;1868.80;;;;;;5020200;28;20384;-77
2022/02/09 12:24:34;;;;;;;;;;;409.70;1868.80;;;;;;5073634;28;19909;-79
2022/02/09 12:27:05;;;;;;;;;;;409.70;1920.00;;;;;;5073271;28;19909;-77
2022/02/09 12:29:38;;;;;;;;;;;409.90;1868.80;;;;;;5072783;28;19923;-79
2022/02/09 12:32:15;;;;;;;;;;;410.00;1868.80;;;;;;5072952;28;19995;-78
2022/02/09 12:34:53;;;;;;;;;;;410.20;1843.20;;;;;;5073076;28;19970;-76
2022/02/09 12:37:18;;;;;;;;;;;410.20;1843.20;;;;;;5077135;28;19913;-78
2022/02/09 12:39:47;;;;;;;;;;;410.00;1843.20;;;;;;5055358;28;19920;-81
2022/02/09 12:42:13;;;;;;;;;;;409.90;1868.80;;;;;;5072422;28;19913;-78
2022/02/09 12:44:39;;;;;;;;;;;410.00;1868.80;;;;;;5055239;28;19999;-81
2022/02/09 12:47:05;;;;;;;;;;;409.90;1868.80;;;;;;5055276;28;20002;-76
2022/02/09 12:49:31;;;;;;;;;;;409.70;1920.00;;;;;;5073134;28;20023;-79
2022/02/09 12:51:58;;;;;;;;;;;409.70;1920.00;;;;;;5072655;28;19908;-76
2022/02/09 12:54:23;;;;;;;;;;;409.70;1920.00;;;;;;5108751;28;19995;-77
2022/02/09 12:56:51;;;;;;;;;;;409.60;1945.60;;;;;;5095797;28;19963;-75
2022/02/09 12:59:18;;;;;;;;;;;409.60;1971.20;;;;;;5114652;28;19915;-79
2022/02/09 13:01:50;;;;;;;;;;;409.60;1894.40;;;;;;5114569;28;19952;-75
2022/02/09 13:04:31;;;;;;;;;;;409.70;1894.40;;;;;;5128278;27;20275;-79
2022/02/09 13:06:57;;;;;;;;;;;384.80;1894.40;;;;;;5096961;28;19920;-80
2022/02/09 13:09:24;;;;;;;;;;;384.60;1945.60;;;;;;5096717;28;19920;-80
2022/02/09 13:11:49;;;;;;;;;;;384.70;1971.20;;;;;;5096924;28;19907;-80
2022/02/09 13:14:26;;;;;;;;;;;384.40;1996.80;;;;;;5096655;28;19987;-79
2022/02/09 13:22:31;;;;;;;;;;;384.20;1996.80;;;;;;5114442;28;20387;-79
2022/02/09 14:54:35;;;;;;;;;;;333.60;2329.60;;;;;;5011147;28;19936;-81
2022/02/09 14:57:09;;;;;;;;;;;333.60;2329.60;;;;;;5010893;28;20278;-75
2022/02/09 15:02:11;;;;;;;;;;;333.30;2329.60;;;;;;5010950;28;20638;-76
2022/02/09 15:12:25;;;;;;;;;;;333.30;2329.60;;;;;;5098677;28;19912;-78
2022/02/09 15:20:42;;;;;;;;;;;333.30;2329.60;;;;;;5116631;28;19968;-81
2022/02/09 15:22:55;;;;;;;;;;;333.20;2329.60;;;;;;5109946;28;19969;-76
2022/02/09 15:25:22;;;;;;;;;;;333.10;2329.60;;;;;;5098453;28;19919;-76
2022/02/09 15:27:52;;;;;;;;;;;333.20;2329.60;;;;;;5098151;28;20317;-82
2022/02/09 15:30:17;;;;;;;;;;;333.20;2329.60;;;;;;5097665;28;19923;-76
2022/02/09 15:32:48;;;;;;;;;;;333.20;2329.60;;;;;;5097835;28;19908;-75
2022/02/09 15:35:20;;;;;;;;;;;333.20;2329.60;;;;;;5098262;28;19914;-76
2022/02/09 15:37:52;;;;;;;;;;;333.10;2329.60;;;;;;5098650;28;19924;-76
2022/02/09 15:40:42;;;;;;;;;;;333.10;2329.60;;;;;;5098063;28;19919;-75
2022/02/09 16:23:33;;;;;;;;;;;307.30;2304.00;;;;;;5115974;28;19915;-81
2022/02/09 16:46:32;;;;;;;;;;;307.30;2304.00;;;;;;5115204;28;19985;-82
2022/02/09 16:51:26;;;;;;;;;;;282.50;2278.40;;;;;;5115048;28;19920;-77
2022/02/09 17:21:09;;;;;;;;;;;256.80;2252.80;;;;;;5113933;28;19923;-80
2022/02/09 17:23:35;;;;;;;;;;;256.50;2252.80;;;;;;5114405;28;19915;-80
2022/02/09 17:26:01;;;;;;;;;;;256.40;2252.80;;;;;;5096392;28;19911;-77
2022/02/09 17:28:27;;;;;;;;;;;256.20;2252.80;;;;;;5096772;28;19957;-76
2022/02/09 17:58:06;;;;;;;;;;;231.10;2252.80;;;;;;5031979;28;20301;-80
2022/02/09 18:00:31;;;;;;;;;;;231.00;2252.80;;;;;;5031555;28;20336;-78
2022/02/09 18:02:57;;;;;;;;;;;231.00;2252.80;;;;;;5031838;28;19909;-82
2022/02/09 18:05:47;;;;;;;;;;;231.00;2252.80;;;;;;5031769;28;19979;-75
2022/02/09 18:08:18;;;;;;;;;;;231.10;2252.80;;;;;;5030909;28;19971;-83
2022/02/09 18:14:18;;;;;;;;;;;231.20;2252.80;;;;;;5070558;28;20186;-79
2022/02/09 18:30:33;;;;;;;;;;;230.90;2252.80;;;;;;5070962;28;19990;-81
2022/02/09 18:38:42;;;;;;;;;;;230.80;2252.80;;;;;;5070440;28;19989;-79
2022/02/09 18:43:53;;;;;;;;;;;230.80;2252.80;;;;;;5071081;28;19913;-81
2022/02/09 18:56:54;;;;;;;;;;;230.70;2252.80;;;;;;5110941;28;19964;-82
2022/02/09 19:02:40;;;;;;;;;;;230.70;2252.80;;;;;;5116928;28;19908;-79
2022/02/09 19:05:22;;;;;;;;;;;230.80;2252.80;;;;;;5116825;28;20018;-77
2022/02/09 19:26:15;;;;;;;;;;;230.50;2252.80;;;;;;5117344;28;19930;-84
2022/02/09 19:31:35;;;;;;;;;;;230.40;2252.80;;;;;;5117206;28;19915;-76
2022/02/09 19:48:05;;;;;;;;;;;205.60;2252.80;;;;;;5054096;28;19951;-82
2022/02/09 19:55:57;;;;;;;;;;;205.40;2252.80;;;;;;5054268;28;19955;-84
2022/02/09 19:58:33;;;;;;;;;;;205.40;2252.80;;;;;;5037476;28;19924;-83
2022/02/09 20:00:59;;;;;;;;;;;205.40;2252.80;;;;;;5053870;28;19909;-79
2022/02/09 20:03:25;;;;;;;;;;;205.30;2252.80;;;;;;5036791;28;19916;-81
2022/02/09 20:05:50;;;;;;;;;;;205.20;2252.80;;;;;;5035682;28;19963;-84
2022/02/09 20:08:16;;;;;;;;;;;205.10;2252.80;;;;;;5036058;28;19956;-78
2022/02/09 20:10:42;;;;;;;;;;;205.00;2252.80;;;;;;5043351;28;19990;-82
2022/02/09 20:13:08;;;;;;;;;;;205.00;2252.80;;;;;;5047524;28;19909;-80
2022/02/09 20:15:34;;;;;;;;;;;205.10;2252.80;;;;;;5036579;28;19916;-76
2022/02/09 20:17:59;;;;;;;;;;;205.00;2252.80;;;;;;5053650;28;19954;-79
2022/02/09 20:20:28;;;;;;;;;;;205.00;2252.80;;;;;;5097803;28;19968;-79
2022/02/09 20:22:56;;;;;;;;;;;205.00;2252.80;;;;;;5116188;28;19975;-82
2022/02/09 20:25:22;;;;;;;;;;;205.00;2252.80;;;;;;5116488;28;20011;-83
2022/02/09 20:27:51;;;;;;;;;;;205.10;2252.80;;;;;;5098074;28;19957;-83
2022/02/09 20:30:20;;;;;;;;;;;204.90;2252.80;;;;;;5115792;28;19930;-83
2022/02/09 20:32:51;;;;;;;;;;;205.00;2252.80;;;;;;5097925;28;19915;-77
2022/02/09 20:35:19;;;;;;;;;;;204.90;2252.80;;;;;;5115874;28;20037;-78
2022/02/09 20:37:48;;;;;;;;;;;204.90;2252.80;;;;;;5115750;28;19912;-79
2022/02/09 20:40:26;;;;;;;;;;;204.80;2252.80;;;;;;5116190;28;19916;-82
2022/02/09 20:42:57;;;;;;;;;;;204.80;2252.80;;;;;;5097563;28;19931;-75
2022/02/09 20:45:31;;;;;;;;;;;204.80;2252.80;;;;;;5115709;28;20263;-83
2022/02/09 20:48:13;;;;;;;;;;;204.80;2252.80;;;;;;5097754;28;19947;-81
2022/02/09 20:50:40;;;;;;;;;;;205.00;2252.80;;;;;;5096867;28;20447;-78
2022/02/09 20:53:05;;;;;;;;;;;204.80;2252.80;;;;;;5096693;28;19977;-82
2022/02/09 20:55:32;;;;;;;;;;;204.80;2252.80;;;;;;5096665;28;20347;-81
2022/02/09 20:57:58;;;;;;;;;;;204.80;2252.80;;;;;;5114893;28;19911;-79
2022/02/09 21:00:34;;;;;;;;;;;204.80;2252.80;;;;;;5114738;28;19914;-77
2022/02/09 21:05:39;;;;;;;;;;;180.10;2252.80;;;;;;5115543;28;19953;-79
2022/02/09 21:32:30;;;;;;;;;;;204.80;2252.80;;;;;;4992922;28;19996;-82
2022/02/09 22:28:15;;;;;;;;;;;205.50;2252.80;;;;;;4982777;28;20313;-80
2022/02/09 22:54:55;;;;;;;;;;;180.10;2252.80;;;;;;5113248;28;19922;-85
2022/02/09 22:57:32;;;;;;;;;;;180.10;2252.80;;;;;;5113704;28;19916;-82
2022/02/09 23:00:12;;;;;;;;;;;180.10;2252.80;;;;;;5095245;28;19908;-83
2022/02/09 23:02:42;;;;;;;;;;;179.90;2252.80;;;;;;5113383;28;19931;-84
2022/02/09 23:05:59;;;;;;;;;;;179.70;2252.80;;;;;;5096065;28;19930;-84
2022/02/09 23:10:36;;;;;;;;;;;179.70;2252.80;;;;;;5113166;28;20348;-84
2022/02/09 23:13:36;;;;;;;;;;;179.40;2252.80;;;;;;5095621;28;20418;-78
2022/02/09 23:16:18;;;;;;;;;;;179.20;2252.80;;;;;;5112128;28;20360;-83
2022/02/09 23:54:13;;;;;;;;;;;179.20;2252.80;;;;;;5117291;28;19964;-84
2022/02/09 23:57:05;;;;;;;;;;;154.40;2252.80;;;;;;5116432;28;19908;-84
